Michal Linetty

Chefscout - Wisla Krakow
19 Aug 2027
Donnerstag
Verarbeitung

Persönlichkeit

Anpassungsfähigkeit (3) Ehrgeiz (14) Kontroverse (5) Loyalität (15) Druck (14) Professionalität (14) Fairness (3) Temperament (19)

Profil

Trainerstil Demokratisch
Lizenz Kontinentale C
Entschlossenheit 4
Menschenführung 9
Motivation 7
Disziplin 5
Arbeitszufriedenheit
100%
Ermüdung
0%
Rolle Chefscout
Gehalt 36.4K p/W
Vertrag 14.03.2030

Leistung

Verhalten Gut
Trainingseffektivität
30%
Spielerentwicklung
30%
Verletzungsprävention
20%
Taktische Umsetzung
45%

Letzte Ereignisse

Nahm an einer Scouting-Besprechung teil jetzt
Nahm an einer Scouting-Besprechung teil jetzt
Nahm an einer Scouting-Besprechung teil jetzt
Nahm an einer Scouting-Besprechung teil 7T her
Nahm an einer Scouting-Besprechung teil 7T her
Legte dem Vorstand ein Dossier vor 7T her
Geburtstag 7T her
Spiel beobachtet 7T her

Aktuell beobachtet

187
Spieler Verein Status Fähigkeit Vertrauen Beobachtet Zuletzt beobachtet Letzte Stimme
Leonardo Mendicino Bari Aktiv 125 / 122 40% 2 18.08.2027 -
David Atiemo Liberty Professionals Aktiv 69 / 91 40% 1 18.08.2027 -
Finley McAllister Grimsby Town Verhandlung 101 / 104 40% 1 09.08.2027 -
Juan Giménez Celta Aktiv 123 / 127 40% 1 09.08.2027 -
Kazunari Kita Real Sociedad Aktiv 99 / 111 40% 1 02.08.2027 -
Eddy Kouadio Crotone Verhandlung 113 / 119 40% 1 02.08.2027 -
Jofre Torrents Ajax Aktiv 120 / 135 40% 1 26.07.2027 -
Hassan Beja AFC Leopards Aktiv 83 / 87 40% 6 19.07.2027 -
Serge Daura Cotonsport Garoua Aktiv 101 / 91 40% 1 19.07.2027 -
Darryl Bakola Padova Aktiv 99 / 111 40% 1 02.06.2027 -
Joel McGregor Swindon Town Aktiv 85 / 104 40% 1 01.06.2027 -
Tyreece Campbell Charlton Athletic Aktiv 123 / 118 40% 5 31.05.2027 -
Stephen Humphrys Bradford City Aktiv 101 / 115 40% 1 31.05.2027 -
Tyrese Campbell Sheffield United Aktiv 134 / 132 40% 4 30.05.2027 -
Ilyas Ansah Hull City Aktiv 130 / 132 40% 3 30.05.2027 -
Santiago Pierotti Lecce Aktiv 130 / 135 40% 3 29.05.2027 -
Andri Guðjohnsen Blackburn Rovers Aktiv 122 / 119 40% 3 29.05.2027 -
Mees Rijks Bristol Rovers Aktiv 105 / 113 40% 3 28.05.2027 -
Lorent Tolaj Plymouth Argyle Aktiv 114 / 126 40% 1 28.05.2027 -
Malik Mothersille Stockport County Aktiv 119 / 120 40% 2 27.05.2027 -
Bandar Yaqoob ES Setif Aktiv 134 / 134 40% 1 26.05.2027 Mehr Infos nötig
Aune Heggebø West Bromwich Albion Aktiv 134 / 123 40% 5 24.05.2027 Beobachten
Abu Kamara Portsmouth Aktiv 121 / 123 40% 2 23.05.2027 -
Víctor Guzmán Sporting CP Aktiv 88 / 96 40% 2 22.05.2027 -
Lorenzo De Leo Renate Aktiv 106 / 102 40% 2 22.05.2027 -
Camillo Tavernelli Arezzo Aktiv 116 / 118 40% 1 22.05.2027 -
Dom Ballard Leyton Orient Aktiv 122 / 129 40% 1 22.05.2027 -
Tomás González Piast Aktiv 117 / 115 40% 2 20.05.2027 -
Pablo Rodríguez Lech Aktiv 119 / 119 40% 4 20.05.2027 -
Matvii Ponomarenko Dynamo Kyiv Aktiv 117 / 130 40% 2 19.05.2027 -
Cristian Shpendi Cesena Aktiv 127 / 133 40% 2 19.05.2027 -
Borna Knezović Casarano Aktiv 107 / 112 40% 1 19.05.2027 -
Marezi Portsmouth Aktiv 127 / 117 40% 1 19.05.2027 -
Emanuele Schimmenti Potenza Aktiv 103 / 111 40% 1 18.05.2027 -
Michael Noumon Heart of Lions Aktiv 72 / 75 40% 2 17.05.2027 -
Chinonso Chibueze Harrogate Town Aktiv 65 / 74 40% 1 17.05.2027 -
Yousef Salech Cardiff City Aktiv 123 / 122 40% 4 15.05.2027 -
Mathias Jørgensen Blackburn Rovers Aktiv 129 / 126 40% 4 14.05.2027 -
Rhian Brewster Oxford United Aktiv 114 / 114 40% 3 13.05.2027 -
Willem Geubbels Lecce Aktiv 129 / 131 40% 1 13.05.2027 -
Emilio Troncoso Kosmos Aktiv 68 / 68 40% 1 13.05.2027 -
Darlvin Yeboah Bechem United Aktiv 95 / 98 40% 1 13.05.2027 -
Alagie Wally Veres Aktiv 91 / 88 40% 3 10.05.2027 -
Adam Idah Swansea City Aktiv 114 / 125 40% 2 10.05.2027 -
Niall Ennis Blackpool Aktiv 121 / 119 40% 2 10.05.2027 -
Leo Castledine Middlesbrough Aktiv 129 / 131 40% 1 09.05.2027 -
Mandla Mahlangu Ajax Cape Town Aktiv 103 / 115 40% 2 06.05.2027 -
Stiven Shpendi Empoli Aktiv 119 / 123 40% 3 05.05.2027 -
Sam Bell Bristol City Aktiv 121 / 124 40% 3 05.05.2027 -
Tom Cannon Sheffield United Aktiv 138 / 132 40% 2 04.05.2027 -
Mihael Mlinarić Zaglebie Aktiv 125 / 109 40% 1 04.05.2027 -
Bojan Radulović Huddersfield Town Aktiv 121 / 117 40% 4 03.05.2027 -
Harry Leonard Peterborough United Aktiv 117 / 110 40% 1 03.05.2027 -
Giuseppe Di Serio Spezia Aktiv 113 / 124 40% 1 30.04.2027 -
Cameron Archer Southampton Aktiv 133 / 126 40% 1 30.04.2027 -
Christian Saydee Wigan Athletic Aktiv 121 / 119 40% 1 28.04.2027 -
Thulani Erasmus Platinum Stars Aktiv 121 / 121 40% 5 27.04.2027 -
Sidiki Chérif Coventry City Aktiv 132 / 126 40% 2 27.04.2027 Mehr Infos nötig
Kelly Saravanan Salford City Aktiv 116 / 118 40% 2 27.04.2027 -
Adama Goïta Remo Stars Aktiv 108 / 98 40% 2 25.04.2027 -
Wendell Livyi Bereh Aktiv 92 / 102 40% 2 25.04.2027 -
Federico Serra Arezzo Aktiv 89 / 90 40% 1 24.04.2027 -
Williams Furman Black Aces Aktiv 78 / 79 40% 1 24.04.2027 -
Will Lankshear Middlesbrough Aktiv 134 / 131 40% 3 20.04.2027 -
Cathal Heffernan Harrogate Town Aktiv 93 / 86 40% 1 19.04.2027 -
Tiago Freitas Benfica Aktiv 118 / 124 40% 1 19.04.2027 -
Dramane Kamagaté USM Alger Aktiv 110 / 117 40% 2 16.04.2027 -
Tommy Conway Middlesbrough Aktiv 119 / 127 40% 3 16.04.2027 -
Luis Palma Lech Aktiv 129 / 111 40% 4 15.04.2027 -
Bernat Guiu Virtus Entella Aktiv 113 / 124 40% 1 15.04.2027 -
Mateus Mané Manchester United Aktiv 140 / 148 40% 1 14.04.2027 -
Gustavo Ferreira Benfica Aktiv 89 / 86 40% 1 14.04.2027 -
Lorenzo Di Stefano Torres Aktiv 117 / 101 40% 1 13.04.2027 -
Edoardo Bove Watford Aktiv 129 / 136 40% 2 10.04.2027 -
James Furlong Walsall Aktiv 110 / 103 40% 1 10.04.2027 -
Azor Matusiwa Ipswich Town Aktiv 133 / 142 40% 2 08.04.2027 -
Ethan Galbraith Swansea City Aktiv 133 / 127 40% 1 08.04.2027 -
Callum Doyle Wrexham Aktiv 126 / 127 40% 2 07.04.2027 -
Jordan Lotomba Bloemfontein Celtic Aktiv 137 / 133 40% 1 07.04.2027 -
Bohdan Viunnyk Lechia Aktiv 115 / 121 40% 1 06.04.2027 -
Williams Manyama SuperSport United Aktiv 116 / 123 40% 3 05.04.2027 -
Juan Mosquera Sheffield Wednesday Aktiv 134 / 131 40% 1 04.04.2027 -
Jack Senior Crawley Town Aktiv 107 / 106 40% 1 04.04.2027 -
Japhet Tanganga Sheffield United Aktiv 139 / 132 40% 1 01.04.2027 -
Callum Brittain Middlesbrough Aktiv 140 / 133 40% 1 01.04.2027 -
Mandla Erasmus SuperSport United Aktiv 112 / 114 40% 1 29.03.2027 -
Rob Atkinson Bristol City Aktiv 122 / 116 40% 1 29.03.2027 -
Atsuki Ito Bolton Wanderers Aktiv 130 / 119 40% 1 28.03.2027 -
Brodie Spencer Oxford United Aktiv 117 / 133 40% 1 28.03.2027 -
Leif Davis Ipswich Town Aktiv 134 / 134 40% 2 27.03.2027 -
Max Bird Birmingham Aktiv 141 / 133 40% 1 27.03.2027 -
Dennis Cirkin Queens Park Rangers Aktiv 128 / 125 40% 1 24.03.2027 -
Lewis Wing Reading Aktiv 123 / 111 40% 1 24.03.2027 -
Thierry Rendall Correia Venezia Aktiv 149 / 146 40% 1 23.03.2027 -
Welington Southampton Aktiv 134 / 130 40% 1 22.03.2027 -
Andrea Carboni Monza Aktiv 122 / 123 40% 1 22.03.2027 -
Nathan Moriah-Welsh Mansfield Town Aktiv 120 / 120 40% 1 20.03.2027 -
Kellen Fisher Norwich City Aktiv 120 / 119 40% 1 19.03.2027 -
Lukáš Červ Viktoria Plzen Aktiv 129 / 142 40% 1 19.03.2027 -
Thomas Waddingham Portsmouth Aktiv 114 / 108 40% 1 19.03.2027 -
Florentino Luís Ipswich Town Aktiv 136 / 132 40% 2 17.03.2027 -
Christian Krasnodar Aktiv 142 / 131 40% 3 17.03.2027 -
Ilias Bronkhorst Huddersfield Town Aktiv 116 / 119 40% 1 15.03.2027 -
Milan van Ewijk Mansfield Town Aktiv 125 / 134 40% 1 15.03.2027 -
Luis Vázquez Birmingham Aktiv 124 / 124 40% 2 13.03.2027 -
Imrân Louza Watford Aktiv 132 / 122 40% 1 13.03.2027 -
Andy Rinomhota Reading Aktiv 118 / 119 40% 1 11.03.2027 -
Shandon Baptiste Luton Town Aktiv 118 / 111 40% 1 11.03.2027 -
Kenny Tete Fulham Aktiv 149 / 142 40% 1 09.03.2027 -
Bosun Lawal Stoke City Aktiv 136 / 122 40% 1 09.03.2027 -
José Martínes CSKA 1948 Aktiv 100 / 115 40% 1 09.03.2027 -
Etiosa Ighodaro Kaizer Chiefs Aktiv 104 / 106 40% 1 08.03.2027 -
Vladislav Blănuţă Lechia Aktiv 113 / 113 40% 2 07.03.2027 -
Lewis Bate Stockport County Aktiv 116 / 116 40% 1 05.03.2027 -
Caolan Boyd-Munce Wycombe Wanderers Aktiv 119 / 119 40% 1 02.03.2027 -
Justin Devenny Stoke City Aktiv 129 / 127 40% 1 02.03.2027 -
Brayan León Mamelodi Sundowns Aktiv 112 / 129 40% 2 24.02.2027 -
Rajmund Molnár Pogon Aktiv 120 / 106 40% 2 22.02.2027 -
Tedi Cara LNZ Aktiv 120 / 111 40% 1 22.02.2027 -
Mikhail Ignatov Sochi Aktiv 108 / 106 40% 1 16.02.2027 -
Álvaro Rodríguez Bournemouth Aktiv 137 / 131 40% 1 13.02.2027 -
Evidence Makgopa Orlando Pirates Aktiv 99 / 110 40% 1 05.02.2027 -
Joe Gelhardt Hull City Aktiv 124 / 127 40% 1 04.02.2027 -
Ammar Ramadan DAC Dunajska Streda Aktiv 124 / 130 40% 2 03.02.2027 -
Kortney Hause Middlesbrough Aktiv 110 / 115 40% 1 01.02.2027 -
Bernardo Vital Jagiellonia Aktiv 129 / 129 40% 1 26.01.2027 -
Tariq Lamptey Queens Park Rangers Aktiv 143 / 135 40% 1 26.01.2027 -
Dylan Levitt Leyton Orient Aktiv 114 / 117 40% 1 19.01.2027 -
Ronald Swansea City Aktiv 134 / 127 40% 1 19.01.2027 -
Tshepang Moremi Orlando Pirates Aktiv 114 / 107 40% 1 12.01.2027 -
Jakub Czerwiński Piast Aktiv 99 / 106 55% 1 07.01.2027 -
Derensili Sanches Fernandes Huddersfield Town Aktiv 123 / 115 40% 1 03.01.2027 -
Ezekiel Kwame Alladoh Philadelphia Union Aktiv 116 / 124 40% 3 30.12.2026 -
Marcelo Allende Mamelodi Sundowns Aktiv 149 / 114 40% 1 29.12.2026 Mehr Infos nötig
Scott Twine Bristol City Aktiv 122 / 119 40% 1 29.12.2026 -
Juan David Delgado Chernihiv Aktiv 68 / 90 40% 1 26.12.2026 -
Petar Stanić Ludogorets Aktiv 128 / 133 40% 1 26.12.2026 -
Thiago Salischiker Rucci HNK Vukovar 1991 Aktiv 81 / 103 40% 2 24.12.2026 -
Francis Sulemana BA All Stars Aktiv 79 / 78 40% 1 22.12.2026 -
Miloš Jovičić Zabbar St. Patrick Aktiv 79 / 87 40% 3 21.12.2026 -
Williams Yikat Aigle Royal de Moungo Aktiv 105 / 103 40% 2 20.12.2026 -
Dmitry Prokhorov Rubin Aktiv 79 / 75 40% 1 19.12.2026 -
Leon Grgić Sturm Graz Aktiv 127 / 119 40% 3 18.12.2026 -
David Kalokoh Ajax Aktiv 120 / 122 40% 3 16.12.2026 -
Agustín Fernández NK Zavrc Aktiv 98 / 92 40% 2 15.12.2026 -
Ante Brekalo Zadar Aktiv 105 / 114 40% 1 15.12.2026 -
Patrik Hellebrand Korona Aktiv 126 / 107 40% 1 15.12.2026 -
Luke Baartman ES Mostaganem Aktiv 112 / 115 40% 1 13.12.2026 -
Filip Szymczak Zaglebie Aktiv 105 / 107 40% 1 08.12.2026 Mehr Infos nötig
Alexei Dominguez Pachuca Aktiv 125 / 101 40% 2 04.12.2026 -
Jean Galindo Imotski Aktiv 83 / 85 40% 4 03.12.2026 -
Andrey Domotsev Mashuk Aktiv 87 / 77 40% 2 01.12.2026 -
Alan Cisnero Shukura Aktiv 106 / 88 40% 1 30.11.2026 -
Tomás Romero Unión de Santa Fe Aktiv 112 / 113 40% 2 29.11.2026 -
Suleiman Camara Slovan Bratislava Aktiv 112 / 123 40% 2 27.11.2026 Mehr Infos nötig
Marko Brkić NK Krka Aktiv 95 / 90 40% 2 22.11.2026 -
Kaio Eduardo Thun Aktiv 117 / 112 40% 2 15.11.2026 -
Maximo Ingravidi Colón Aktiv 84 / 98 40% 2 12.11.2026 -
Jonás Luna Santa Clara Aktiv 125 / 121 40% 2 12.11.2026 -
Oswin Appollis Orlando Pirates Aktiv 138 / 110 40% 1 10.11.2026 -
Daniel Braut Tromso Aktiv 85 / 97 40% 1 05.11.2026 -
Angelo Gattermayer Wolfsberger AC Aktiv 117 / 124 40% 1 05.11.2026 -
Bruno Barrionuevo Godoy Cruz Aktiv 76 / 89 40% 1 03.11.2026 -
Nikita Kuzin Kaluga Aktiv 95 / 85 40% 3 02.11.2026 -
Kristian Fletcher FC Cincinnati Aktiv 98 / 93 40% 3 30.10.2026 -
Archie Goodwin Charlotte Football Club Aktiv 86 / 103 40% 3 29.10.2026 -
Kimani Stewart-Baynes Colorado Rapids Aktiv 75 / 99 40% 2 26.10.2026 -
Lwanda Mbanjwa Maritzburg United Aktiv 107 / 101 40% 1 24.10.2026 -
Ruben Ramos LA Galaxy Aktiv 111 / 100 40% 1 21.10.2026 -
Chineme Chinonso Ikorodu City Aktiv 83 / 108 40% 1 16.10.2026 -
Oskar Tomczyk Podbeskidzie Aktiv 91 / 98 40% 1 15.10.2026 -
Maren Kefas Plateau United Aktiv 99 / 101 40% 1 14.10.2026 -
Jalal Abdullai Molde Aktiv 126 / 126 40% 1 09.10.2026 -
Joseph Arumala Ikorodu City Aktiv 83 / 103 40% 1 28.09.2026 -
Nikolay Zlatev Cherno More Aktiv 96 / 94 40% 1 27.09.2026 -
Tosin Olawale El-Kanemi Warriors Aktiv 85 / 103 40% 1 23.09.2026 -
Harvey Sarajian Orlando City Aktiv 107 / 102 40% 1 19.09.2026 -
Oladimeji Dada Ikorodu City Aktiv 106 / 104 40% 1 17.09.2026 -
Stefano Zanetti Atalanta Aktiv 68 / 79 40% 1 17.09.2026 -
Seymour Reid New York City Aktiv 92 / 103 40% 2 14.09.2026 -
Juan Rodríguez Wanderers Aktiv 83 / 98 40% 1 10.09.2026 -
Andy Rojas New York Red Bulls Aktiv 103 / 97 40% 1 09.09.2026 -
Shane Nti Brighton Aktiv 86 / 104 40% 1 31.08.2026 -
Juan Manuel Sanabria Real Salt Lake Aktiv 104 / 128 40% 1 25.08.2026 -
Herman Johansson FC Dallas Aktiv 136 / 123 40% 1 18.08.2026 -
Luca De La Torre Charlotte Football Club Aktiv 144 / 123 40% 1 18.08.2026 -
Ainsley Maitland-Niles Everton Aktiv 136 / 148 40% 1 01.08.2026 -